createdAt,value
2023-05-18T00:00:54.441Z,102139.63
2023-05-18T00:03:59.393Z,102131.84
2023-05-18T00:07:06.826Z,102140.56
2023-05-18T00:10:11.671Z,102138.97
2023-05-18T00:13:14.816Z,102139.16
2023-05-18T00:16:17.868Z,102140.47
2023-05-18T00:19:24.131Z,102143.75
2023-05-18T00:22:27.537Z,102144.75
2023-05-18T00:25:30.785Z,102142.28
2023-05-18T00:28:33.986Z,102140.47
2023-05-18T00:31:39.268Z,102139.75
2023-05-18T00:34:44.789Z,102146.50
2023-05-18T00:37:48.206Z,102150.44
2023-05-18T00:40:51.994Z,102152.78
2023-05-18T00:43:57.931Z,102159.31
2023-05-18T00:47:02.144Z,102156.56
2023-05-18T00:50:08.209Z,102155.66
2023-05-18T00:53:11.749Z,102162.69
2023-05-18T00:56:16.317Z,102160.00
2023-05-18T00:59:19.422Z,102165.09
2023-05-18T01:02:23.909Z,102168.09
2023-05-18T01:05:28.319Z,102163.00
2023-05-18T01:08:32.160Z,102168.78
2023-05-18T01:11:49.997Z,102171.94
2023-05-18T01:15:07.345Z,102183.91
2023-05-18T01:18:16.419Z,102177.03
2023-05-18T01:21:37.282Z,102176.66
2023-05-18T01:24:45.513Z,102187.28
2023-05-18T01:27:52.128Z,102185.22
2023-05-18T01:30:57.841Z,102186.03
2023-05-18T01:34:01.212Z,102189.19
2023-05-18T01:37:04.352Z,102183.69
2023-05-18T01:40:10.266Z,102188.88
2023-05-18T01:43:19.985Z,102192.38
2023-05-18T01:46:34.099Z,102193.44
2023-05-18T01:49:41.483Z,102191.53
2023-05-18T01:52:48.062Z,102186.94
2023-05-18T01:55:53.830Z,102195.66
2023-05-18T01:58:59.640Z,102192.47
2023-05-18T02:02:04.260Z,102194.97
2023-05-18T02:05:12.314Z,102202.53
2023-05-18T02:08:16.266Z,102204.34
2023-05-18T02:11:19.927Z,102195.91
2023-05-18T02:14:24.224Z,102193.69
2023-05-18T02:17:27.364Z,102192.06
2023-05-18T02:20:33.454Z,102195.28
2023-05-18T02:23:36.798Z,102196.63
2023-05-18T02:26:41.649Z,102192.81
2023-05-18T02:29:46.045Z,102192.16
2023-05-18T02:32:49.366Z,102201.84
2023-05-18T02:35:53.361Z,102196.72
2023-05-18T02:38:57.286Z,102204.56
2023-05-18T02:42:00.657Z,102203.19
2023-05-18T02:45:07.447Z,102207.16
2023-05-18T02:48:11.076Z,102207.66
2023-05-18T02:51:14.661Z,102215.06
2023-05-18T02:54:17.770Z,102209.63
2023-05-18T02:57:21.751Z,102208.84
2023-05-18T03:00:37.134Z,102208.25
2023-05-18T03:03:42.122Z,102207.19
2023-05-18T03:06:47.428Z,102218.13
2023-05-18T03:09:51.234Z,102222.66
2023-05-18T03:12:54.531Z,102220.06
2023-05-18T03:16:00.146Z,102219.16
2023-05-18T03:19:04.049Z,102219.88
2023-05-18T03:22:11.913Z,102216.84
2023-05-18T03:25:16.428Z,102218.75
2023-05-18T03:28:19.499Z,102219.66
2023-05-18T03:31:24.691Z,102223.06
2023-05-18T03:34:29.124Z,102219.53
2023-05-18T03:37:32.682Z,102226.78
2023-05-18T03:40:35.705Z,102235.22
2023-05-18T03:43:39.006Z,102221.97
2023-05-18T03:46:45.170Z,102231.44
2023-05-18T03:49:48.735Z,102234.09
2023-05-18T03:52:52.998Z,102232.25
2023-05-18T03:55:56.887Z,102233.31
2023-05-18T03:59:00.182Z,102235.19
2023-05-18T04:02:05.253Z,102233.25
2023-05-18T04:05:09.845Z,102248.69
2023-05-18T04:08:14.498Z,102239.00
2023-05-18T04:11:17.811Z,102252.19
2023-05-18T04:14:21.244Z,102249.50
2023-05-18T04:17:26.124Z,102254.38
2023-05-18T04:20:29.853Z,102253.50
2023-05-18T04:23:33.473Z,102262.25
2023-05-18T04:26:38.510Z,102266.69
2023-05-18T04:29:43.944Z,102264.84
2023-05-18T04:32:49.151Z,102268.03
2023-05-18T04:35:55.140Z,102272.13
2023-05-18T04:39:03.499Z,102267.50
2023-05-18T04:42:07.649Z,102266.44
2023-05-18T04:45:16.390Z,102272.41
2023-05-18T04:48:21.566Z,102267.16
2023-05-18T04:51:25.829Z,102272.59
2023-05-18T04:54:31.860Z,102274.34
2023-05-18T04:57:35.111Z,102277.09
2023-05-18T05:00:38.570Z,102278.13
2023-05-18T05:03:43.489Z,102281.13
2023-05-18T05:06:47.384Z,102273.34
2023-05-18T05:09:50.493Z,102265.47
2023-05-18T05:12:54.336Z,102272.91
2023-05-18T05:15:57.355Z,102277.03
2023-05-18T05:19:03.425Z,102270.03
2023-05-18T05:22:06.759Z,102278.28
2023-05-18T05:25:10.542Z,102274.25
2023-05-18T05:28:14.564Z,102276.38
2023-05-18T05:31:18.564Z,102279.88
2023-05-18T05:34:23.763Z,102282.78
2023-05-18T05:37:26.896Z,102280.81
2023-05-18T05:40:30.009Z,102290.78
2023-05-18T05:43:33.630Z,102292.53
2023-05-18T05:46:37.647Z,102291.75
2023-05-18T05:49:43.308Z,102289.97
2023-05-18T05:52:46.439Z,102297.56
2023-05-18T05:55:49.486Z,102294.34
2023-05-18T05:58:54.296Z,102296.19
2023-05-18T06:01:57.386Z,102287.97
2023-05-18T06:05:05.102Z,102293.81
2023-05-18T06:08:15.093Z,102300.84
2023-05-18T06:11:27.031Z,102290.22
2023-05-18T06:14:34.075Z,102296.53
2023-05-18T06:17:38.731Z,102294.78
2023-05-18T06:20:47.108Z,102299.81
2023-05-18T06:23:52.350Z,102296.84
2023-05-18T06:27:20.227Z,102290.09
2023-05-18T06:30:34.475Z,102298.69
2023-05-18T06:33:51.910Z,102297.25
2023-05-18T06:36:56.840Z,102302.38
2023-05-18T06:40:15.125Z,102292.81
2023-05-18T06:43:21.421Z,102298.06
2023-05-18T06:46:41.113Z,102295.50
2023-05-18T06:49:53.505Z,102299.53
2023-05-18T06:52:58.768Z,102307.84
2023-05-18T06:56:02.044Z,102300.00
2023-05-18T06:59:06.041Z,102302.81
2023-05-18T07:02:09.716Z,102303.41
2023-05-18T07:05:12.689Z,102301.94
2023-05-18T07:08:17.107Z,102293.84
2023-05-18T07:11:20.090Z,102298.78
2023-05-18T07:14:23.892Z,102289.88
2023-05-18T07:17:26.931Z,102289.06
2023-05-18T07:20:30.069Z,102290.75
2023-05-18T07:23:34.316Z,102288.75
2023-05-18T07:26:37.348Z,102292.94
2023-05-18T07:29:42.968Z,102287.50
2023-05-18T07:32:47.396Z,102283.69
2023-05-18T07:35:53.237Z,102284.00
2023-05-18T07:39:00.261Z,102282.44
2023-05-18T07:42:06.625Z,102290.19
2023-05-18T07:45:13.303Z,102289.69
2023-05-18T07:48:16.347Z,102287.56
2023-05-18T07:51:19.366Z,102288.56
2023-05-18T07:54:27.617Z,102287.56
2023-05-18T07:57:32.538Z,102287.31
2023-05-18T08:00:38.253Z,102302.91
2023-05-18T08:03:44.594Z,102283.38
2023-05-18T08:06:54.821Z,102288.53
2023-05-18T08:09:59.648Z,102302.22
2023-05-18T08:13:03.485Z,102303.97
2023-05-18T08:16:12.228Z,102305.91
2023-05-18T08:19:19.411Z,102303.06
2023-05-18T08:22:22.895Z,102298.84
2023-05-18T08:25:27.504Z,102312.53
2023-05-18T08:28:31.153Z,102300.00
2023-05-18T08:31:34.431Z,102302.69
2023-05-18T08:34:39.588Z,102312.34
2023-05-18T08:37:42.764Z,102304.44
2023-05-18T08:40:59.979Z,102300.84
2023-05-18T08:44:09.471Z,102305.53
2023-05-18T08:47:16.386Z,102295.25
2023-05-18T08:50:28.149Z,102298.06
2023-05-18T08:53:36.178Z,102306.47
2023-05-18T08:56:45.746Z,102291.69
2023-05-18T08:59:55.377Z,102290.38
2023-05-18T09:02:59.159Z,102290.75
2023-05-18T09:06:04.086Z,102300.78
2023-05-18T09:09:09.839Z,102306.75
2023-05-18T09:12:16.067Z,102306.75
2023-05-18T09:15:19.497Z,102312.25
2023-05-18T09:18:28.824Z,102309.44
2023-05-18T09:21:36.409Z,102302.91
2023-05-18T09:24:47.446Z,102301.66
2023-05-18T09:27:54.689Z,102294.72
2023-05-18T09:30:58.316Z,102292.72
2023-05-18T09:34:01.783Z,102297.31
2023-05-18T09:37:05.848Z,102297.31
2023-05-18T09:40:13.478Z,102289.28
2023-05-18T09:43:19.111Z,102289.66
2023-05-18T09:46:22.455Z,102289.34
2023-05-18T09:49:28.962Z,102284.84
2023-05-18T09:52:44.722Z,102282.94
2023-05-18T09:55:50.475Z,102280.78
2023-05-18T09:58:55.483Z,102284.25
2023-05-18T10:02:02.029Z,102284.78
2023-05-18T10:05:08.085Z,102287.44
2023-05-18T10:08:15.164Z,102290.34
2023-05-18T10:11:19.766Z,102274.78
2023-05-18T10:14:44.551Z,102270.88
2023-05-18T10:17:53.648Z,102268.19
2023-05-18T10:21:05.755Z,102263.75
2023-05-18T10:24:14.921Z,102259.47
2023-05-18T10:27:28.654Z,102249.28
2023-05-18T10:30:37.086Z,102250.66
2023-05-18T10:33:41.179Z,102246.94
2023-05-18T10:36:51.200Z,102253.66
2023-05-18T10:40:01.472Z,102251.31
2023-05-18T10:43:17.416Z,102252.16
2023-05-18T10:46:27.396Z,102249.91
2023-05-18T10:49:38.126Z,102246.44
2023-05-18T10:52:45.978Z,102248.94
2023-05-18T10:55:53.088Z,102244.44
2023-05-18T10:59:02.383Z,102244.06
2023-05-18T11:02:09.449Z,102237.78
2023-05-18T11:05:15.516Z,102243.59
2023-05-18T11:08:27.870Z,102235.63
2023-05-18T11:11:31.645Z,102233.34
2023-05-18T11:14:34.726Z,102246.00
2023-05-18T11:17:41.033Z,102241.56
2023-05-18T11:20:47.201Z,102247.56
2023-05-18T11:24:25.951Z,102240.38
2023-05-18T11:27:32.456Z,102244.53
2023-05-18T11:30:59.910Z,102230.13
2023-05-18T11:34:39.115Z,102227.41
2023-05-18T11:37:50.115Z,102229.63
2023-05-18T11:40:53.167Z,102236.00
2023-05-18T11:44:17.150Z,102224.34
2023-05-18T11:47:20.721Z,102222.66
2023-05-18T11:50:25.302Z,102216.69
2023-05-18T11:53:31.233Z,102212.19
2023-05-18T11:56:35.127Z,102219.91
2023-05-18T11:59:43.385Z,102219.53
2023-05-18T12:02:48.781Z,102220.28
2023-05-18T12:05:53.689Z,102216.88
2023-05-18T12:08:57.211Z,102219.88
2023-05-18T12:12:00.407Z,102226.97
2023-05-18T12:15:08.546Z,102221.69
2023-05-18T12:18:12.576Z,102222.13
2023-05-18T12:21:23.455Z,102219.34
2023-05-18T12:24:26.555Z,102218.88
2023-05-18T12:27:30.161Z,102216.31
2023-05-18T12:30:36.333Z,102207.44
2023-05-18T12:33:39.785Z,102207.66
2023-05-18T12:36:53.916Z,102207.34
2023-05-18T12:39:57.061Z,102196.50
2023-05-18T12:43:03.341Z,102200.66
2023-05-18T12:46:06.896Z,102202.25
2023-05-18T12:49:10.889Z,102207.50
2023-05-18T12:52:17.498Z,102210.59
2023-05-18T12:55:24.405Z,102209.31
2023-05-18T12:58:27.452Z,102203.47
2023-05-18T13:01:31.891Z,102191.13
2023-05-18T13:08:07.015Z,102179.91
2023-05-18T13:11:14.828Z,102178.41
2023-05-18T13:14:23.648Z,102186.03
2023-05-18T13:17:26.967Z,102185.94
2023-05-18T13:20:37.769Z,102188.38
2023-05-18T13:23:44.888Z,102184.75
2023-05-18T13:26:48.382Z,102180.41
2023-05-18T13:29:52.630Z,102180.31
2023-05-18T13:32:55.970Z,102180.97
2023-05-18T13:36:04.508Z,102177.03
2023-05-18T13:39:09.873Z,102176.78
2023-05-18T13:42:14.622Z,102174.00
2023-05-18T13:45:22.605Z,102174.72
2023-05-18T13:48:27.830Z,102170.97
2023-05-18T13:51:31.434Z,102161.41
2023-05-18T13:54:36.180Z,102164.56
2023-05-18T13:57:45.462Z,102164.22
2023-05-18T14:00:49.241Z,102152.25
2023-05-18T14:03:52.443Z,102156.59
2023-05-18T14:06:55.971Z,102149.94
2023-05-18T14:10:02.211Z,102138.88
2023-05-18T14:13:09.318Z,102147.53
2023-05-18T14:16:15.754Z,102150.41
2023-05-18T14:19:21.090Z,102145.00
2023-05-18T14:22:27.680Z,102153.81
2023-05-18T14:25:32.227Z,102143.03
2023-05-18T14:28:35.425Z,102143.44
2023-05-18T14:31:40.375Z,102144.78
2023-05-18T14:34:43.604Z,102140.53
2023-05-18T14:37:47.263Z,102135.06
2023-05-18T14:40:54.551Z,102135.75
2023-05-18T14:43:58.124Z,102141.50
2023-05-18T14:47:01.952Z,102133.84
2023-05-18T14:50:09.036Z,102131.97
2023-05-18T14:53:12.243Z,102129.00
2023-05-18T14:56:16.905Z,102132.88
2023-05-18T14:59:23.577Z,102119.78
2023-05-18T15:02:28.984Z,102131.63
2023-05-18T15:05:32.117Z,102126.41
2023-05-18T15:08:35.874Z,102136.44
2023-05-18T15:11:40.323Z,102130.06
2023-05-18T15:14:43.524Z,102125.97
2023-05-18T15:17:48.156Z,102127.69
2023-05-18T15:20:51.523Z,102129.03
2023-05-18T15:23:54.805Z,102131.00
2023-05-18T15:26:59.295Z,102133.94
2023-05-18T15:30:03.325Z,102125.56
2023-05-18T15:33:07.298Z,102130.56
2023-05-18T15:36:10.892Z,102121.88
2023-05-18T15:39:14.126Z,102128.03
2023-05-18T15:42:19.996Z,102126.97
2023-05-18T15:45:28.062Z,102121.09
2023-05-18T15:48:31.618Z,102118.81
2023-05-18T15:51:34.903Z,102119.34
2023-05-18T15:54:38.299Z,102111.19
2023-05-18T15:57:42.800Z,102111.81
2023-05-18T16:00:48.135Z,102124.06
2023-05-18T16:03:51.244Z,102117.38
2023-05-18T16:06:55.200Z,102116.09
2023-05-18T16:09:58.673Z,102116.59
2023-05-18T16:13:06.460Z,102111.56
2023-05-18T16:16:10.510Z,102102.09
2023-05-18T16:19:14.038Z,102108.34
2023-05-18T16:22:17.734Z,102105.91
2023-05-18T16:25:20.873Z,102106.19
2023-05-18T16:28:25.419Z,102107.00
2023-05-18T16:31:28.669Z,102110.84
2023-05-18T16:34:31.761Z,102115.03
2023-05-18T16:37:36.462Z,102118.53
2023-05-18T16:40:39.740Z,102117.38
2023-05-18T16:43:44.540Z,102119.84
2023-05-18T16:46:47.764Z,102114.75
2023-05-18T16:49:51.090Z,102108.63
2023-05-18T16:52:54.510Z,102107.97
2023-05-18T16:55:57.611Z,102115.50
2023-05-18T16:59:03.152Z,102118.00
2023-05-18T17:02:10.137Z,102112.78
2023-05-18T17:05:15.397Z,102114.09
2023-05-18T17:08:18.549Z,102117.00
2023-05-18T17:11:23.452Z,102110.84
2023-05-18T17:14:27.774Z,102109.25
2023-05-18T17:17:30.917Z,102109.38
2023-05-18T17:20:34.368Z,102103.78
2023-05-18T17:23:39.644Z,102107.84
2023-05-18T17:26:42.836Z,102112.44
2023-05-18T17:29:49.455Z,102103.59
2023-05-18T17:32:55.939Z,102103.03
2023-05-18T17:35:59.176Z,102103.25
2023-05-18T17:39:21.274Z,102098.09
2023-05-18T17:42:36.092Z,102103.66
2023-05-18T17:45:41.432Z,102103.53
2023-05-18T17:48:46.163Z,102094.53
2023-05-18T17:51:49.614Z,102104.22
2023-05-18T17:54:57.123Z,102099.78
2023-05-18T17:58:07.976Z,102091.22
2023-05-18T18:01:12.551Z,102100.84
2023-05-18T18:04:16.635Z,102102.31
2023-05-18T18:07:20.968Z,102108.38
2023-05-18T18:10:24.860Z,102105.97
2023-05-18T18:13:27.972Z,102104.50
2023-05-18T18:16:35.248Z,102107.97
2023-05-18T18:19:49.611Z,102108.28
2023-05-18T18:23:19.487Z,102112.22
2023-05-18T18:26:27.783Z,102110.25
2023-05-18T18:29:31.505Z,102116.03
2023-05-18T18:32:42.984Z,102123.91
2023-05-18T18:35:49.597Z,102119.38
2023-05-18T18:38:53.257Z,102121.75
2023-05-18T18:41:56.597Z,102118.94
2023-05-18T18:44:59.982Z,102114.63
2023-05-18T18:48:04.992Z,102122.06
2023-05-18T18:51:08.222Z,102126.25
2023-05-18T18:54:11.495Z,102126.16
2023-05-18T18:57:14.772Z,102130.56
2023-05-18T19:00:20.611Z,102132.34
2023-05-18T19:03:36.974Z,102134.44
2023-05-18T19:06:44.721Z,102147.13
2023-05-18T19:09:59.834Z,102139.84
2023-05-18T19:13:13.436Z,102143.69
2023-05-18T19:16:27.524Z,102149.25
2023-05-18T19:19:43.778Z,102140.50
2023-05-18T19:23:07.745Z,102155.97
2023-05-18T19:26:27.489Z,102156.53
2023-05-18T19:29:37.968Z,102157.66
2023-05-18T19:32:43.535Z,102157.75
2023-05-18T19:35:49.524Z,102158.91
2023-05-18T19:38:59.577Z,102157.66
2023-05-18T19:42:03.530Z,102158.81
2023-05-18T19:45:07.657Z,102162.81
2023-05-18T19:48:13.991Z,102156.56
2023-05-18T19:51:29.985Z,102164.53
2023-05-18T19:54:51.008Z,102164.63
2023-05-18T19:58:03.198Z,102166.13
2023-05-18T20:01:10.012Z,102178.78
2023-05-18T20:04:13.735Z,102179.94
2023-05-18T20:07:20.396Z,102186.59
2023-05-18T20:10:23.738Z,102187.13
2023-05-18T20:13:31.222Z,102185.13
2023-05-18T20:16:39.283Z,102195.31
2023-05-18T20:19:50.491Z,102197.47
2023-05-18T20:22:55.016Z,102194.34
2023-05-18T20:25:58.136Z,102201.22
2023-05-18T20:29:01.327Z,102202.47
2023-05-18T20:32:08.129Z,102202.78
2023-05-18T20:35:12.733Z,102205.59
2023-05-18T20:38:19.450Z,102201.66
2023-05-18T20:41:23.324Z,102200.03
2023-05-18T20:44:28.060Z,102205.19
2023-05-18T20:47:32.010Z,102210.34
2023-05-18T20:50:35.135Z,102214.03
2023-05-18T20:53:39.677Z,102201.16
2023-05-18T20:56:42.867Z,102208.19
2023-05-18T20:59:46.927Z,102213.16
2023-05-18T21:02:50.632Z,102213.25
2023-05-18T21:05:53.783Z,102201.50
2023-05-18T21:09:02.175Z,102202.13
2023-05-18T21:12:09.464Z,102201.69
2023-05-18T21:15:16.057Z,102201.09
2023-05-18T21:18:19.268Z,102203.34
2023-05-18T21:21:22.521Z,102203.75
2023-05-18T21:24:27.075Z,102201.63
2023-05-18T21:27:30.210Z,102209.91
2023-05-18T21:30:33.581Z,102212.09
2023-05-18T21:33:39.363Z,102213.31
2023-05-18T21:36:43.338Z,102209.00
2023-05-18T21:39:47.834Z,102210.22
2023-05-18T21:42:51.113Z,102206.44
2023-05-18T21:45:57.639Z,102209.78
2023-05-18T21:49:03.038Z,102204.38
2023-05-18T21:52:06.521Z,102200.56
2023-05-18T21:55:14.625Z,102205.53
2023-05-18T21:58:18.539Z,102211.59
2023-05-18T22:01:23.489Z,102212.06
2023-05-18T22:04:26.861Z,102213.59
2023-05-18T22:07:30.055Z,102210.66
2023-05-18T22:10:36.890Z,102207.44
2023-05-18T22:13:40.143Z,102213.13
2023-05-18T22:16:43.387Z,102205.66
2023-05-18T22:19:50.660Z,102215.03
2023-05-18T22:22:54.107Z,102216.25
2023-05-18T22:25:58.583Z,102221.53
2023-05-18T22:29:01.911Z,102210.50
2023-05-18T22:32:06.212Z,102215.69
2023-05-18T22:35:13.151Z,102215.13
2023-05-18T22:38:16.763Z,102214.59
2023-05-18T22:41:21.960Z,102210.22
2023-05-18T22:44:25.359Z,102212.34
2023-05-18T22:47:29.629Z,102213.28
2023-05-18T22:50:33.042Z,102218.31
2023-05-18T22:53:39.510Z,102209.38
2023-05-18T22:56:47.544Z,102215.28
2023-05-18T22:59:50.631Z,102209.69
2023-05-18T23:02:57.028Z,102202.22
2023-05-18T23:06:02.998Z,102210.94
2023-05-18T23:09:06.266Z,102206.97
2023-05-18T23:12:11.724Z,102202.56
2023-05-18T23:15:15.433Z,102200.75
2023-05-18T23:18:26.632Z,102204.91
2023-05-18T23:21:31.034Z,102201.50
2023-05-18T23:24:34.779Z,102196.22
2023-05-18T23:27:39.460Z,102206.44
2023-05-18T23:30:42.529Z,102208.03
2023-05-18T23:33:47.324Z,102207.19
2023-05-18T23:36:57.395Z,102205.97
2023-05-18T23:40:03.239Z,102212.88
2023-05-18T23:43:12.681Z,102204.66
2023-05-18T23:46:17.019Z,102204.53
2023-05-18T23:49:21.181Z,102202.97
2023-05-18T23:52:27.925Z,102196.41
2023-05-18T23:55:33.571Z,102198.59
2023-05-18T23:58:38.533Z,102191.47
